sensor_id;sensor_type;location;lat;lon;timestamp;P1;durP1;ratioP1;P2;durP2;ratioP2
11835;SDS011;5977;51.972;7.640;2024-01-27T00:00:45;138.83;;;46.07;;
11835;SDS011;5977;51.972;7.640;2024-01-27T00:03:13;138.53;;;45.93;;
11835;SDS011;5977;51.972;7.640;2024-01-27T00:05:41;138.27;;;45.90;;
11835;SDS011;5977;51.972;7.640;2024-01-27T00:08:09;138.60;;;46.10;;
11835;SDS011;5977;51.972;7.640;2024-01-27T00:10:38;138.57;;;45.97;;
11835;SDS011;5977;51.972;7.640;2024-01-27T00:13:06;139.00;;;46.10;;
11835;SDS011;5977;51.972;7.640;2024-01-27T00:15:34;138.60;;;45.87;;
11835;SDS011;5977;51.972;7.640;2024-01-27T00:18:02;138.97;;;46.20;;
11835;SDS011;5977;51.972;7.640;2024-01-27T00:20:30;137.70;;;45.60;;
11835;SDS011;5977;51.972;7.640;2024-01-27T00:22:59;138.40;;;45.87;;
11835;SDS011;5977;51.972;7.640;2024-01-27T00:25:27;138.03;;;45.70;;
11835;SDS011;5977;51.972;7.640;2024-01-27T00:27:56;138.63;;;45.93;;
11835;SDS011;5977;51.972;7.640;2024-01-27T00:30:24;138.30;;;45.90;;
11835;SDS011;5977;51.972;7.640;2024-01-27T00:32:52;138.63;;;46.00;;
11835;SDS011;5977;51.972;7.640;2024-01-27T00:35:20;138.40;;;45.97;;
11835;SDS011;5977;51.972;7.640;2024-01-27T00:37:48;138.57;;;45.97;;
11835;SDS011;5977;51.972;7.640;2024-01-27T00:40:16;138.00;;;45.70;;
11835;SDS011;5977;51.972;7.640;2024-01-27T00:42:44;138.07;;;45.77;;
11835;SDS011;5977;51.972;7.640;2024-01-27T00:45:13;137.87;;;45.77;;
11835;SDS011;5977;51.972;7.640;2024-01-27T00:47:41;138.50;;;45.97;;
11835;SDS011;5977;51.972;7.640;2024-01-27T00:50:09;137.97;;;45.70;;
11835;SDS011;5977;51.972;7.640;2024-01-27T00:52:37;138.13;;;45.73;;
11835;SDS011;5977;51.972;7.640;2024-01-27T00:55:05;138.30;;;45.87;;
11835;SDS011;5977;51.972;7.640;2024-01-27T00:57:35;138.23;;;45.77;;
11835;SDS011;5977;51.972;7.640;2024-01-27T01:00:03;137.40;;;45.50;;
11835;SDS011;5977;51.972;7.640;2024-01-27T01:02:34;138.10;;;45.70;;
11835;SDS011;5977;51.972;7.640;2024-01-27T01:05:02;138.03;;;45.80;;
11835;SDS011;5977;51.972;7.640;2024-01-27T01:07:31;137.97;;;45.70;;
11835;SDS011;5977;51.972;7.640;2024-01-27T01:09:59;137.93;;;45.70;;
11835;SDS011;5977;51.972;7.640;2024-01-27T01:12:27;137.53;;;45.53;;
11835;SDS011;5977;51.972;7.640;2024-01-27T01:14:55;138.30;;;45.90;;
11835;SDS011;5977;51.972;7.640;2024-01-27T01:17:23;137.93;;;45.73;;
11835;SDS011;5977;51.972;7.640;2024-01-27T01:19:52;138.00;;;45.73;;
11835;SDS011;5977;51.972;7.640;2024-01-27T01:22:20;137.63;;;45.70;;
11835;SDS011;5977;51.972;7.640;2024-01-27T01:24:48;138.13;;;45.80;;
11835;SDS011;5977;51.972;7.640;2024-01-27T01:27:16;137.77;;;45.67;;
11835;SDS011;5977;51.972;7.640;2024-01-27T01:29:45;137.23;;;45.57;;
11835;SDS011;5977;51.972;7.640;2024-01-27T01:32:13;137.50;;;45.53;;
11835;SDS011;5977;51.972;7.640;2024-01-27T01:34:41;137.67;;;45.70;;
11835;SDS011;5977;51.972;7.640;2024-01-27T01:37:11;137.97;;;45.70;;
11835;SDS011;5977;51.972;7.640;2024-01-27T01:39:39;137.60;;;45.53;;
11835;SDS011;5977;51.972;7.640;2024-01-27T01:42:07;137.00;;;45.30;;
11835;SDS011;5977;51.972;7.640;2024-01-27T01:44:35;138.03;;;45.80;;
11835;SDS011;5977;51.972;7.640;2024-01-27T01:47:03;137.00;;;45.40;;
11835;SDS011;5977;51.972;7.640;2024-01-27T01:49:31;137.90;;;45.83;;
11835;SDS011;5977;51.972;7.640;2024-01-27T01:52:00;137.33;;;45.50;;
11835;SDS011;5977;51.972;7.640;2024-01-27T01:54:30;137.73;;;45.67;;
11835;SDS011;5977;51.972;7.640;2024-01-27T01:56:58;137.70;;;45.70;;
11835;SDS011;5977;51.972;7.640;2024-01-27T01:59:27;137.47;;;45.60;;
11835;SDS011;5977;51.972;7.640;2024-01-27T02:01:55;137.77;;;45.70;;
11835;SDS011;5977;51.972;7.640;2024-01-27T02:04:22;137.73;;;45.60;;
11835;SDS011;5977;51.972;7.640;2024-01-27T02:06:50;136.80;;;45.30;;
11835;SDS011;5977;51.972;7.640;2024-01-27T02:09:18;137.40;;;45.53;;
11835;SDS011;5977;51.972;7.640;2024-01-27T02:11:48;137.87;;;45.77;;
11835;SDS011;5977;51.972;7.640;2024-01-27T02:14:16;137.33;;;45.57;;
11835;SDS011;5977;51.972;7.640;2024-01-27T02:16:44;137.27;;;45.43;;
11835;SDS011;5977;51.972;7.640;2024-01-27T02:19:12;137.30;;;45.53;;
11835;SDS011;5977;51.972;7.640;2024-01-27T02:21:40;137.23;;;45.43;;
11835;SDS011;5977;51.972;7.640;2024-01-27T02:24:09;137.03;;;45.33;;
11835;SDS011;5977;51.972;7.640;2024-01-27T02:26:37;137.70;;;45.70;;
11835;SDS011;5977;51.972;7.640;2024-01-27T02:29:05;137.97;;;45.73;;
11835;SDS011;5977;51.972;7.640;2024-01-27T02:31:33;137.60;;;45.60;;
11835;SDS011;5977;51.972;7.640;2024-01-27T02:34:01;138.17;;;45.93;;
11835;SDS011;5977;51.972;7.640;2024-01-27T02:36:29;136.90;;;45.30;;
11835;SDS011;5977;51.972;7.640;2024-01-27T02:38:57;137.60;;;45.67;;
11835;SDS011;5977;51.972;7.640;2024-01-27T02:41:26;137.63;;;45.70;;
11835;SDS011;5977;51.972;7.640;2024-01-27T02:43:54;136.77;;;45.30;;
11835;SDS011;5977;51.972;7.640;2024-01-27T02:46:22;137.83;;;45.83;;
11835;SDS011;5977;51.972;7.640;2024-01-27T02:48:50;137.37;;;45.60;;
11835;SDS011;5977;51.972;7.640;2024-01-27T02:51:18;137.10;;;45.40;;
11835;SDS011;5977;51.972;7.640;2024-01-27T02:53:47;137.40;;;45.63;;
11835;SDS011;5977;51.972;7.640;2024-01-27T02:56:15;136.97;;;45.33;;
11835;SDS011;5977;51.972;7.640;2024-01-27T02:58:45;137.43;;;45.73;;
11835;SDS011;5977;51.972;7.640;2024-01-27T03:01:13;137.57;;;45.57;;
11835;SDS011;5977;51.972;7.640;2024-01-27T03:03:41;137.23;;;45.57;;
11835;SDS011;5977;51.972;7.640;2024-01-27T03:06:09;137.30;;;45.47;;
11835;SDS011;5977;51.972;7.640;2024-01-27T03:08:37;136.80;;;45.33;;
11835;SDS011;5977;51.972;7.640;2024-01-27T03:11:05;137.37;;;45.60;;
11835;SDS011;5977;51.972;7.640;2024-01-27T03:13:33;137.00;;;45.37;;
11835;SDS011;5977;51.972;7.640;2024-01-27T03:16:02;136.70;;;45.30;;
11835;SDS011;5977;51.972;7.640;2024-01-27T03:18:30;136.70;;;45.30;;
11835;SDS011;5977;51.972;7.640;2024-01-27T03:20:58;137.37;;;45.57;;
11835;SDS011;5977;51.972;7.640;2024-01-27T03:23:26;137.07;;;45.43;;
11835;SDS011;5977;51.972;7.640;2024-01-27T03:25:54;136.93;;;45.40;;
11835;SDS011;5977;51.972;7.640;2024-01-27T03:28:22;137.40;;;45.60;;
11835;SDS011;5977;51.972;7.640;2024-01-27T03:30:50;136.97;;;45.50;;
11835;SDS011;5977;51.972;7.640;2024-01-27T03:33:19;136.57;;;45.30;;
11835;SDS011;5977;51.972;7.640;2024-01-27T03:35:49;137.13;;;45.43;;
11835;SDS011;5977;51.972;7.640;2024-01-27T03:38:17;137.10;;;45.47;;
11835;SDS011;5977;51.972;7.640;2024-01-27T03:40:44;137.30;;;45.57;;
11835;SDS011;5977;51.972;7.640;2024-01-27T03:43:12;137.13;;;45.50;;
11835;SDS011;5977;51.972;7.640;2024-01-27T03:45:40;136.57;;;45.23;;
11835;SDS011;5977;51.972;7.640;2024-01-27T03:48:08;137.20;;;45.60;;
11835;SDS011;5977;51.972;7.640;2024-01-27T03:50:38;137.63;;;45.67;;
11835;SDS011;5977;51.972;7.640;2024-01-27T03:53:06;137.47;;;45.70;;
11835;SDS011;5977;51.972;7.640;2024-01-27T03:55:34;136.93;;;45.50;;
11835;SDS011;5977;51.972;7.640;2024-01-27T03:58:01;137.27;;;45.63;;
11835;SDS011;5977;51.972;7.640;2024-01-27T04:00:29;137.10;;;45.40;;
11835;SDS011;5977;51.972;7.640;2024-01-27T04:02:59;137.07;;;45.50;;
11835;SDS011;5977;51.972;7.640;2024-01-27T04:05:28;136.97;;;45.50;;
11835;SDS011;5977;51.972;7.640;2024-01-27T04:07:57;137.30;;;45.57;;
11835;SDS011;5977;51.972;7.640;2024-01-27T04:10:25;136.67;;;45.30;;
11835;SDS011;5977;51.972;7.640;2024-01-27T04:12:53;136.70;;;45.37;;
11835;SDS011;5977;51.972;7.640;2024-01-27T04:15:21;137.10;;;45.47;;
11835;SDS011;5977;51.972;7.640;2024-01-27T04:17:49;136.93;;;45.40;;
11835;SDS011;5977;51.972;7.640;2024-01-27T04:20:17;137.47;;;45.60;;
11835;SDS011;5977;51.972;7.640;2024-01-27T04:22:45;137.63;;;45.63;;
11835;SDS011;5977;51.972;7.640;2024-01-27T04:25:14;137.17;;;45.60;;
11835;SDS011;5977;51.972;7.640;2024-01-27T04:27:42;136.70;;;45.30;;
11835;SDS011;5977;51.972;7.640;2024-01-27T04:30:12;137.10;;;45.57;;
11835;SDS011;5977;51.972;7.640;2024-01-27T04:32:40;136.63;;;45.20;;
11835;SDS011;5977;51.972;7.640;2024-01-27T04:35:08;136.50;;;45.27;;
11835;SDS011;5977;51.972;7.640;2024-01-27T04:37:37;136.73;;;45.30;;
11835;SDS011;5977;51.972;7.640;2024-01-27T04:40:06;136.77;;;45.40;;
11835;SDS011;5977;51.972;7.640;2024-01-27T04:42:37;137.53;;;45.70;;
11835;SDS011;5977;51.972;7.640;2024-01-27T04:45:05;136.53;;;45.40;;
11835;SDS011;5977;51.972;7.640;2024-01-27T04:47:33;137.00;;;45.40;;
11835;SDS011;5977;51.972;7.640;2024-01-27T04:50:01;136.67;;;45.30;;
11835;SDS011;5977;51.972;7.640;2024-01-27T04:52:30;136.90;;;45.33;;
11835;SDS011;5977;51.972;7.640;2024-01-27T04:54:58;136.73;;;45.27;;
11835;SDS011;5977;51.972;7.640;2024-01-27T04:57:26;136.13;;;45.13;;
11835;SDS011;5977;51.972;7.640;2024-01-27T04:59:55;136.50;;;45.30;;
11835;SDS011;5977;51.972;7.640;2024-01-27T05:02:23;136.47;;;45.27;;
11835;SDS011;5977;51.972;7.640;2024-01-27T05:04:51;136.30;;;45.10;;
11835;SDS011;5977;51.972;7.640;2024-01-27T05:07:19;136.13;;;45.17;;
11835;SDS011;5977;51.972;7.640;2024-01-27T05:09:47;136.53;;;45.23;;
11835;SDS011;5977;51.972;7.640;2024-01-27T05:12:15;137.07;;;45.40;;
11835;SDS011;5977;51.972;7.640;2024-01-27T05:14:43;135.93;;;45.17;;
11835;SDS011;5977;51.972;7.640;2024-01-27T05:17:13;136.03;;;45.00;;
11835;SDS011;5977;51.972;7.640;2024-01-27T05:19:41;136.63;;;45.43;;
11835;SDS011;5977;51.972;7.640;2024-01-27T05:22:09;136.17;;;45.20;;
11835;SDS011;5977;51.972;7.640;2024-01-27T05:24:36;137.03;;;45.53;;
11835;SDS011;5977;51.972;7.640;2024-01-27T05:27:04;137.10;;;45.57;;
11835;SDS011;5977;51.972;7.640;2024-01-27T05:29:32;136.53;;;45.20;;
11835;SDS011;5977;51.972;7.640;2024-01-27T05:32:00;137.17;;;45.50;;
11835;SDS011;5977;51.972;7.640;2024-01-27T05:34:29;137.60;;;45.67;;
11835;SDS011;5977;51.972;7.640;2024-01-27T05:36:58;136.47;;;45.30;;
11835;SDS011;5977;51.972;7.640;2024-01-27T05:39:25;136.57;;;45.33;;
11835;SDS011;5977;51.972;7.640;2024-01-27T05:41:55;136.47;;;45.40;;
11835;SDS011;5977;51.972;7.640;2024-01-27T05:44:23;136.73;;;45.43;;
11835;SDS011;5977;51.972;7.640;2024-01-27T05:46:51;137.13;;;45.47;;
11835;SDS011;5977;51.972;7.640;2024-01-27T05:49:19;136.77;;;45.50;;
11835;SDS011;5977;51.972;7.640;2024-01-27T05:51:48;136.07;;;45.13;;
11835;SDS011;5977;51.972;7.640;2024-01-27T05:54:16;136.93;;;45.50;;
11835;SDS011;5977;51.972;7.640;2024-01-27T05:56:44;136.63;;;45.40;;
11835;SDS011;5977;51.972;7.640;2024-01-27T05:59:12;135.83;;;45.07;;
11835;SDS011;5977;51.972;7.640;2024-01-27T06:01:40;136.20;;;45.27;;
11835;SDS011;5977;51.972;7.640;2024-01-27T06:04:09;135.70;;;45.00;;
11835;SDS011;5977;51.972;7.640;2024-01-27T06:06:38;136.07;;;45.07;;
11835;SDS011;5977;51.972;7.640;2024-01-27T06:09:08;136.53;;;45.23;;
11835;SDS011;5977;51.972;7.640;2024-01-27T06:11:37;136.27;;;45.27;;
11835;SDS011;5977;51.972;7.640;2024-01-27T06:14:05;136.33;;;45.30;;
11835;SDS011;5977;51.972;7.640;2024-01-27T06:16:33;135.57;;;44.93;;
11835;SDS011;5977;51.972;7.640;2024-01-27T06:19:01;136.00;;;45.17;;
11835;SDS011;5977;51.972;7.640;2024-01-27T06:21:30;135.53;;;44.90;;
11835;SDS011;5977;51.972;7.640;2024-01-27T06:23:58;135.60;;;45.00;;
11835;SDS011;5977;51.972;7.640;2024-01-27T06:26:27;136.30;;;45.20;;
11835;SDS011;5977;51.972;7.640;2024-01-27T06:28:55;136.27;;;45.20;;
11835;SDS011;5977;51.972;7.640;2024-01-27T06:31:23;135.67;;;45.03;;
11835;SDS011;5977;51.972;7.640;2024-01-27T06:33:51;136.30;;;45.30;;
11835;SDS011;5977;51.972;7.640;2024-01-27T06:36:19;135.83;;;45.03;;
11835;SDS011;5977;51.972;7.640;2024-01-27T06:38:49;136.33;;;45.30;;
11835;SDS011;5977;51.972;7.640;2024-01-27T06:41:17;136.23;;;45.27;;
11835;SDS011;5977;51.972;7.640;2024-01-27T06:43:46;136.27;;;45.27;;
11835;SDS011;5977;51.972;7.640;2024-01-27T06:46:14;136.43;;;45.37;;
11835;SDS011;5977;51.972;7.640;2024-01-27T06:48:42;136.17;;;45.30;;
11835;SDS011;5977;51.972;7.640;2024-01-27T06:51:10;136.07;;;45.20;;
11835;SDS011;5977;51.972;7.640;2024-01-27T06:53:38;135.83;;;45.07;;
11835;SDS011;5977;51.972;7.640;2024-01-27T06:56:07;136.17;;;45.30;;
11835;SDS011;5977;51.972;7.640;2024-01-27T06:58:35;135.47;;;45.00;;
11835;SDS011;5977;51.972;7.640;2024-01-27T07:01:05;136.00;;;45.23;;
11835;SDS011;5977;51.972;7.640;2024-01-27T07:03:34;135.40;;;44.97;;
11835;SDS011;5977;51.972;7.640;2024-01-27T07:06:02;135.93;;;45.23;;
11835;SDS011;5977;51.972;7.640;2024-01-27T07:08:31;136.20;;;45.20;;
11835;SDS011;5977;51.972;7.640;2024-01-27T07:11:03;136.47;;;45.27;;
11835;SDS011;5977;51.972;7.640;2024-01-27T07:13:31;135.47;;;44.90;;
11835;SDS011;5977;51.972;7.640;2024-01-27T07:15:59;135.60;;;45.10;;
11835;SDS011;5977;51.972;7.640;2024-01-27T07:18:28;135.20;;;44.93;;
11835;SDS011;5977;51.972;7.640;2024-01-27T07:20:57;133.87;;;44.53;;
11835;SDS011;5977;51.972;7.640;2024-01-27T07:23:26;133.80;;;44.60;;
11835;SDS011;5977;51.972;7.640;2024-01-27T07:25:53;132.67;;;44.23;;
11835;SDS011;5977;51.972;7.640;2024-01-27T07:28:21;131.73;;;43.80;;
11835;SDS011;5977;51.972;7.640;2024-01-27T07:30:49;132.00;;;44.00;;
11835;SDS011;5977;51.972;7.640;2024-01-27T07:33:17;131.53;;;43.90;;
11835;SDS011;5977;51.972;7.640;2024-01-27T07:35:47;130.90;;;43.60;;
11835;SDS011;5977;51.972;7.640;2024-01-27T07:38:15;130.97;;;43.80;;
11835;SDS011;5977;51.972;7.640;2024-01-27T07:40:42;130.73;;;43.70;;
11835;SDS011;5977;51.972;7.640;2024-01-27T07:43:10;130.73;;;43.77;;
11835;SDS011;5977;51.972;7.640;2024-01-27T07:45:38;130.60;;;43.63;;
11835;SDS011;5977;51.972;7.640;2024-01-27T07:48:06;130.57;;;43.60;;
11835;SDS011;5977;51.972;7.640;2024-01-27T07:50:35;129.70;;;43.33;;
11835;SDS011;5977;51.972;7.640;2024-01-27T07:53:04;130.23;;;43.57;;
11835;SDS011;5977;51.972;7.640;2024-01-27T07:55:32;129.57;;;43.40;;
11835;SDS011;5977;51.972;7.640;2024-01-27T07:58:00;129.70;;;43.43;;
11835;SDS011;5977;51.972;7.640;2024-01-27T08:00:28;129.40;;;43.40;;
11835;SDS011;5977;51.972;7.640;2024-01-27T08:02:57;129.70;;;43.43;;
11835;SDS011;5977;51.972;7.640;2024-01-27T08:05:25;129.80;;;43.50;;
11835;SDS011;5977;51.972;7.640;2024-01-27T08:07:53;129.23;;;43.40;;
11835;SDS011;5977;51.972;7.640;2024-01-27T08:10:23;129.20;;;43.43;;
11835;SDS011;5977;51.972;7.640;2024-01-27T08:12:51;130.13;;;43.70;;
11835;SDS011;5977;51.972;7.640;2024-01-27T08:15:19;129.93;;;43.57;;
11835;SDS011;5977;51.972;7.640;2024-01-27T08:17:47;129.90;;;43.60;;
11835;SDS011;5977;51.972;7.640;2024-01-27T08:20:15;129.47;;;43.43;;
11835;SDS011;5977;51.972;7.640;2024-01-27T08:22:43;129.20;;;43.50;;
11835;SDS011;5977;51.972;7.640;2024-01-27T08:25:12;129.37;;;43.50;;
11835;SDS011;5977;51.972;7.640;2024-01-27T08:27:41;129.80;;;43.73;;
11835;SDS011;5977;51.972;7.640;2024-01-27T08:30:10;129.97;;;43.63;;
11835;SDS011;5977;51.972;7.640;2024-01-27T08:32:38;130.63;;;43.97;;
11835;SDS011;5977;51.972;7.640;2024-01-27T08:35:07;131.73;;;44.17;;
11835;SDS011;5977;51.972;7.640;2024-01-27T08:37:37;131.97;;;44.27;;
11835;SDS011;5977;51.972;7.640;2024-01-27T08:40:06;132.83;;;44.50;;
11835;SDS011;5977;51.972;7.640;2024-01-27T08:42:34;133.57;;;44.70;;
11835;SDS011;5977;51.972;7.640;2024-01-27T08:45:04;133.70;;;44.80;;
11835;SDS011;5977;51.972;7.640;2024-01-27T08:47:32;134.30;;;44.97;;
11835;SDS011;5977;51.972;7.640;2024-01-27T08:50:01;134.20;;;44.93;;
11835;SDS011;5977;51.972;7.640;2024-01-27T08:52:29;134.90;;;45.30;;
11835;SDS011;5977;51.972;7.640;2024-01-27T08:54:59;134.87;;;45.30;;
11835;SDS011;5977;51.972;7.640;2024-01-27T08:57:27;134.00;;;44.83;;
11835;SDS011;5977;51.972;7.640;2024-01-27T08:59:55;134.10;;;44.90;;
11835;SDS011;5977;51.972;7.640;2024-01-27T09:02:24;134.13;;;44.93;;
11835;SDS011;5977;51.972;7.640;2024-01-27T09:04:52;134.47;;;45.10;;
11835;SDS011;5977;51.972;7.640;2024-01-27T09:07:20;134.93;;;45.30;;
11835;SDS011;5977;51.972;7.640;2024-01-27T09:09:48;134.77;;;45.20;;
11835;SDS011;5977;51.972;7.640;2024-01-27T09:12:16;135.23;;;45.33;;
11835;SDS011;5977;51.972;7.640;2024-01-27T09:14:44;135.47;;;45.50;;
11835;SDS011;5977;51.972;7.640;2024-01-27T09:17:12;135.07;;;45.33;;
11835;SDS011;5977;51.972;7.640;2024-01-27T09:19:41;135.83;;;45.57;;
11835;SDS011;5977;51.972;7.640;2024-01-27T09:22:10;136.17;;;45.73;;
11835;SDS011;5977;51.972;7.640;2024-01-27T09:24:37;135.70;;;45.63;;
11835;SDS011;5977;51.972;7.640;2024-01-27T09:27:06;136.00;;;45.77;;
11835;SDS011;5977;51.972;7.640;2024-01-27T09:29:34;135.83;;;45.53;;
11835;SDS011;5977;51.972;7.640;2024-01-27T09:32:02;136.07;;;45.67;;
11835;SDS011;5977;51.972;7.640;2024-01-27T09:34:30;136.13;;;45.80;;
11835;SDS011;5977;51.972;7.640;2024-01-27T09:36:59;136.20;;;45.70;;
11835;SDS011;5977;51.972;7.640;2024-01-27T09:39:27;136.40;;;45.80;;
11835;SDS011;5977;51.972;7.640;2024-01-27T09:41:55;135.83;;;45.40;;
11835;SDS011;5977;51.972;7.640;2024-01-27T09:44:25;137.10;;;46.07;;
11835;SDS011;5977;51.972;7.640;2024-01-27T09:46:53;137.27;;;46.23;;
11835;SDS011;5977;51.972;7.640;2024-01-27T09:49:22;136.70;;;45.90;;
11835;SDS011;5977;51.972;7.640;2024-01-27T09:51:52;137.20;;;46.07;;
11835;SDS011;5977;51.972;7.640;2024-01-27T09:54:23;137.07;;;45.90;;
11835;SDS011;5977;51.972;7.640;2024-01-27T09:56:51;137.03;;;45.90;;
11835;SDS011;5977;51.972;7.640;2024-01-27T09:59:20;137.33;;;46.00;;
11835;SDS011;5977;51.972;7.640;2024-01-27T10:01:49;137.03;;;45.90;;
11835;SDS011;5977;51.972;7.640;2024-01-27T10:04:18;137.57;;;46.07;;
11835;SDS011;5977;51.972;7.640;2024-01-27T10:06:47;137.03;;;45.93;;
11835;SDS011;5977;51.972;7.640;2024-01-27T10:09:17;136.63;;;45.73;;
11835;SDS011;5977;51.972;7.640;2024-01-27T10:11:46;136.93;;;45.87;;
11835;SDS011;5977;51.972;7.640;2024-01-27T10:14:14;137.50;;;46.13;;
11835;SDS011;5977;51.972;7.640;2024-01-27T10:16:42;136.80;;;45.90;;
11835;SDS011;5977;51.972;7.640;2024-01-27T10:19:12;137.10;;;46.00;;
11835;SDS011;5977;51.972;7.640;2024-01-27T10:21:43;137.90;;;46.20;;
11835;SDS011;5977;51.972;7.640;2024-01-27T10:24:11;137.53;;;46.10;;
11835;SDS011;5977;51.972;7.640;2024-01-27T10:26:40;137.67;;;46.17;;
11835;SDS011;5977;51.972;7.640;2024-01-27T10:29:09;137.60;;;46.17;;
11835;SDS011;5977;51.972;7.640;2024-01-27T10:31:37;138.13;;;46.20;;
11835;SDS011;5977;51.972;7.640;2024-01-27T10:34:05;137.40;;;46.07;;
11835;SDS011;5977;51.972;7.640;2024-01-27T10:36:39;137.67;;;46.20;;
11835;SDS011;5977;51.972;7.640;2024-01-27T10:39:15;137.70;;;46.17;;
11835;SDS011;5977;51.972;7.640;2024-01-27T10:41:44;137.57;;;46.17;;
11835;SDS011;5977;51.972;7.640;2024-01-27T10:44:15;137.93;;;46.27;;
11835;SDS011;5977;51.972;7.640;2024-01-27T10:46:44;138.07;;;46.20;;
11835;SDS011;5977;51.972;7.640;2024-01-27T10:49:14;137.67;;;46.03;;
11835;SDS011;5977;51.972;7.640;2024-01-27T10:51:43;138.50;;;46.47;;
11835;SDS011;5977;51.972;7.640;2024-01-27T10:54:14;138.70;;;46.53;;
11835;SDS011;5977;51.972;7.640;2024-01-27T10:56:44;138.60;;;46.47;;
11835;SDS011;5977;51.972;7.640;2024-01-27T10:59:14;138.67;;;46.50;;
11835;SDS011;5977;51.972;7.640;2024-01-27T11:01:46;138.90;;;46.60;;
11835;SDS011;5977;51.972;7.640;2024-01-27T11:04:17;139.10;;;46.63;;
11835;SDS011;5977;51.972;7.640;2024-01-27T11:06:47;139.43;;;46.70;;
11835;SDS011;5977;51.972;7.640;2024-01-27T11:09:16;138.90;;;46.50;;
11835;SDS011;5977;51.972;7.640;2024-01-27T11:11:45;138.73;;;46.40;;
11835;SDS011;5977;51.972;7.640;2024-01-27T11:14:15;139.37;;;46.77;;
11835;SDS011;5977;51.972;7.640;2024-01-27T11:16:43;139.63;;;46.73;;
11835;SDS011;5977;51.972;7.640;2024-01-27T11:19:16;139.47;;;46.80;;
11835;SDS011;5977;51.972;7.640;2024-01-27T11:21:44;140.10;;;47.00;;
11835;SDS011;5977;51.972;7.640;2024-01-27T11:24:13;139.43;;;46.70;;
11835;SDS011;5977;51.972;7.640;2024-01-27T11:26:42;140.20;;;46.97;;
11835;SDS011;5977;51.972;7.640;2024-01-27T11:29:10;139.50;;;46.70;;
11835;SDS011;5977;51.972;7.640;2024-01-27T11:31:47;139.40;;;46.57;;
11835;SDS011;5977;51.972;7.640;2024-01-27T11:34:17;139.67;;;46.60;;
11835;SDS011;5977;51.972;7.640;2024-01-27T11:36:46;139.43;;;46.63;;
11835;SDS011;5977;51.972;7.640;2024-01-27T11:39:24;140.43;;;47.10;;
11835;SDS011;5977;51.972;7.640;2024-01-27T11:42:03;139.93;;;46.73;;
11835;SDS011;5977;51.972;7.640;2024-01-27T11:44:33;139.50;;;46.53;;
11835;SDS011;5977;51.972;7.640;2024-01-27T11:47:03;140.10;;;46.83;;
11835;SDS011;5977;51.972;7.640;2024-01-27T11:49:33;139.47;;;46.47;;
11835;SDS011;5977;51.972;7.640;2024-01-27T11:52:01;139.37;;;46.67;;
11835;SDS011;5977;51.972;7.640;2024-01-27T11:54:30;138.80;;;46.37;;
11835;SDS011;5977;51.972;7.640;2024-01-27T11:56:58;138.27;;;46.23;;
11835;SDS011;5977;51.972;7.640;2024-01-27T11:59:26;136.93;;;45.80;;
11835;SDS011;5977;51.972;7.640;2024-01-27T12:01:54;137.03;;;45.87;;
11835;SDS011;5977;51.972;7.640;2024-01-27T12:04:23;136.67;;;45.63;;
11835;SDS011;5977;51.972;7.640;2024-01-27T12:06:51;136.53;;;45.63;;
11835;SDS011;5977;51.972;7.640;2024-01-27T12:09:19;137.87;;;46.47;;
11835;SDS011;5977;51.972;7.640;2024-01-27T12:11:48;137.30;;;46.00;;
11835;SDS011;5977;51.972;7.640;2024-01-27T12:14:16;137.67;;;46.07;;
11835;SDS011;5977;51.972;7.640;2024-01-27T12:16:44;137.40;;;46.10;;
11835;SDS011;5977;51.972;7.640;2024-01-27T12:19:13;138.30;;;46.33;;
11835;SDS011;5977;51.972;7.640;2024-01-27T12:21:48;138.00;;;46.30;;
11835;SDS011;5977;51.972;7.640;2024-01-27T12:24:16;138.00;;;46.23;;
11835;SDS011;5977;51.972;7.640;2024-01-27T12:26:47;137.63;;;46.17;;
11835;SDS011;5977;51.972;7.640;2024-01-27T12:29:15;138.03;;;46.20;;
11835;SDS011;5977;51.972;7.640;2024-01-27T12:31:44;139.20;;;46.80;;
11835;SDS011;5977;51.972;7.640;2024-01-27T12:34:12;139.13;;;46.73;;
11835;SDS011;5977;51.972;7.640;2024-01-27T12:36:41;139.10;;;46.70;;
11835;SDS011;5977;51.972;7.640;2024-01-27T12:39:10;139.07;;;46.53;;
11835;SDS011;5977;51.972;7.640;2024-01-27T12:41:39;138.60;;;46.53;;
11835;SDS011;5977;51.972;7.640;2024-01-27T12:44:06;138.57;;;46.50;;
11835;SDS011;5977;51.972;7.640;2024-01-27T12:46:34;138.57;;;46.50;;
11835;SDS011;5977;51.972;7.640;2024-01-27T12:49:02;138.87;;;46.53;;
11835;SDS011;5977;51.972;7.640;2024-01-27T12:51:30;138.83;;;46.47;;
11835;SDS011;5977;51.972;7.640;2024-01-27T12:53:58;138.60;;;46.43;;
11835;SDS011;5977;51.972;7.640;2024-01-27T12:56:28;139.50;;;46.80;;
11835;SDS011;5977;51.972;7.640;2024-01-27T12:58:56;139.10;;;46.63;;
11835;SDS011;5977;51.972;7.640;2024-01-27T13:01:24;139.03;;;46.63;;
11835;SDS011;5977;51.972;7.640;2024-01-27T13:03:52;138.83;;;46.67;;
11835;SDS011;5977;51.972;7.640;2024-01-27T13:06:20;138.43;;;46.47;;
11835;SDS011;5977;51.972;7.640;2024-01-27T13:08:49;138.57;;;46.60;;
11835;SDS011;5977;51.972;7.640;2024-01-27T13:11:19;136.87;;;45.90;;
11835;SDS011;5977;51.972;7.640;2024-01-27T13:13:49;136.27;;;45.70;;
11835;SDS011;5977;51.972;7.640;2024-01-27T13:16:16;136.53;;;45.67;;
11835;SDS011;5977;51.972;7.640;2024-01-27T13:18:45;136.20;;;45.70;;
11835;SDS011;5977;51.972;7.640;2024-01-27T13:21:13;135.70;;;45.43;;
11835;SDS011;5977;51.972;7.640;2024-01-27T13:23:41;136.23;;;45.73;;
11835;SDS011;5977;51.972;7.640;2024-01-27T13:26:09;135.53;;;45.37;;
11835;SDS011;5977;51.972;7.640;2024-01-27T13:28:45;135.57;;;45.33;;
11835;SDS011;5977;51.972;7.640;2024-01-27T13:31:16;135.03;;;45.33;;
11835;SDS011;5977;51.972;7.640;2024-01-27T13:33:44;136.00;;;45.70;;
11835;SDS011;5977;51.972;7.640;2024-01-27T13:36:13;135.73;;;45.50;;
11835;SDS011;5977;51.972;7.640;2024-01-27T13:38:43;136.03;;;45.63;;
11835;SDS011;5977;51.972;7.640;2024-01-27T13:41:10;135.97;;;45.57;;
11835;SDS011;5977;51.972;7.640;2024-01-27T13:43:38;135.57;;;45.50;;
11835;SDS011;5977;51.972;7.640;2024-01-27T13:46:06;136.33;;;45.87;;
11835;SDS011;5977;51.972;7.640;2024-01-27T13:48:35;136.00;;;45.67;;
11835;SDS011;5977;51.972;7.640;2024-01-27T13:51:04;135.67;;;45.50;;
11835;SDS011;5977;51.972;7.640;2024-01-27T13:53:33;135.10;;;45.27;;
11835;SDS011;5977;51.972;7.640;2024-01-27T13:56:12;135.00;;;45.33;;
11835;SDS011;5977;51.972;7.640;2024-01-27T13:58:41;135.60;;;45.53;;
11835;SDS011;5977;51.972;7.640;2024-01-27T14:01:09;135.17;;;45.33;;
11835;SDS011;5977;51.972;7.640;2024-01-27T14:03:39;134.63;;;45.10;;
11835;SDS011;5977;51.972;7.640;2024-01-27T14:06:07;135.60;;;45.50;;
11835;SDS011;5977;51.972;7.640;2024-01-27T14:08:39;135.20;;;45.23;;
11835;SDS011;5977;51.972;7.640;2024-01-27T14:11:07;135.00;;;45.20;;
11835;SDS011;5977;51.972;7.640;2024-01-27T14:13:36;135.00;;;45.17;;
11835;SDS011;5977;51.972;7.640;2024-01-27T14:16:03;135.83;;;45.63;;
11835;SDS011;5977;51.972;7.640;2024-01-27T14:18:32;135.60;;;45.60;;
11835;SDS011;5977;51.972;7.640;2024-01-27T14:21:01;134.63;;;45.10;;
11835;SDS011;5977;51.972;7.640;2024-01-27T14:23:30;135.03;;;45.23;;
11835;SDS011;5977;51.972;7.640;2024-01-27T14:25:58;134.93;;;45.30;;
11835;SDS011;5977;51.972;7.640;2024-01-27T14:28:26;135.07;;;45.30;;